sensor_id;sensor_type;location;lat;lon;timestamp;P1;durP1;ratioP1;P2;durP2;ratioP2
18973;SDS011;9621;48.690;9.466;2023-04-09T00:00:39;17.63;;;12.40;;
18973;SDS011;9621;48.690;9.466;2023-04-09T00:03:06;18.08;;;11.18;;
18973;SDS011;9621;48.690;9.466;2023-04-09T00:05:36;15.30;;;11.70;;
18973;SDS011;9621;48.690;9.466;2023-04-09T00:08:04;18.13;;;12.90;;
18973;SDS011;9621;48.690;9.466;2023-04-09T00:10:31;17.55;;;12.13;;
18973;SDS011;9621;48.690;9.466;2023-04-09T00:12:58;19.67;;;13.02;;
18973;SDS011;9621;48.690;9.466;2023-04-09T00:15:26;16.75;;;11.88;;
18973;SDS011;9621;48.690;9.466;2023-04-09T00:17:53;14.57;;;10.90;;
18973;SDS011;9621;48.690;9.466;2023-04-09T00:20:21;14.45;;;10.85;;
18973;SDS011;9621;48.690;9.466;2023-04-09T00:22:48;15.73;;;12.07;;
18973;SDS011;9621;48.690;9.466;2023-04-09T00:25:15;18.08;;;12.65;;
18973;SDS011;9621;48.690;9.466;2023-04-09T00:27:42;18.17;;;12.73;;
18973;SDS011;9621;48.690;9.466;2023-04-09T00:30:10;18.80;;;13.20;;
18973;SDS011;9621;48.690;9.466;2023-04-09T00:32:38;18.88;;;12.20;;
18973;SDS011;9621;48.690;9.466;2023-04-09T00:35:05;14.95;;;11.35;;
18973;SDS011;9621;48.690;9.466;2023-04-09T00:37:32;17.25;;;11.70;;
18973;SDS011;9621;48.690;9.466;2023-04-09T00:39:59;16.65;;;12.25;;
18973;SDS011;9621;48.690;9.466;2023-04-09T00:42:29;15.98;;;12.18;;
18973;SDS011;9621;48.690;9.466;2023-04-09T00:44:57;21.17;;;13.07;;
18973;SDS011;9621;48.690;9.466;2023-04-09T00:47:23;17.52;;;12.35;;
18973;SDS011;9621;48.690;9.466;2023-04-09T00:49:52;19.65;;;12.43;;
18973;SDS011;9621;48.690;9.466;2023-04-09T00:52:20;19.30;;;12.80;;
18973;SDS011;9621;48.690;9.466;2023-04-09T00:54:47;18.33;;;12.10;;
18973;SDS011;9621;48.690;9.466;2023-04-09T00:57:14;16.25;;;11.93;;
18973;SDS011;9621;48.690;9.466;2023-04-09T00:59:41;18.42;;;12.15;;
18973;SDS011;9621;48.690;9.466;2023-04-09T01:02:08;16.92;;;12.50;;
18973;SDS011;9621;48.690;9.466;2023-04-09T01:04:35;15.80;;;11.18;;
18973;SDS011;9621;48.690;9.466;2023-04-09T01:07:07;19.60;;;12.07;;
18973;SDS011;9621;48.690;9.466;2023-04-09T01:09:40;14.27;;;11.40;;
18973;SDS011;9621;48.690;9.466;2023-04-09T01:12:13;15.43;;;10.48;;
18973;SDS011;9621;48.690;9.466;2023-04-09T01:14:52;17.42;;;11.27;;
18973;SDS011;9621;48.690;9.466;2023-04-09T01:17:24;17.80;;;11.80;;
18973;SDS011;9621;48.690;9.466;2023-04-09T01:19:57;18.50;;;12.35;;
18973;SDS011;9621;48.690;9.466;2023-04-09T01:22:30;17.42;;;12.30;;
18973;SDS011;9621;48.690;9.466;2023-04-09T01:25:07;16.17;;;12.48;;
18973;SDS011;9621;48.690;9.466;2023-04-09T01:27:43;17.85;;;12.38;;
18973;SDS011;9621;48.690;9.466;2023-04-09T01:30:22;18.23;;;12.90;;
18973;SDS011;9621;48.690;9.466;2023-04-09T01:32:50;18.00;;;12.68;;
18973;SDS011;9621;48.690;9.466;2023-04-09T01:35:18;16.50;;;11.10;;
18973;SDS011;9621;48.690;9.466;2023-04-09T01:37:46;21.20;;;12.30;;
18973;SDS011;9621;48.690;9.466;2023-04-09T01:40:14;17.15;;;11.25;;
18973;SDS011;9621;48.690;9.466;2023-04-09T01:42:41;18.35;;;11.57;;
18973;SDS011;9621;48.690;9.466;2023-04-09T01:45:08;13.57;;;10.68;;
18973;SDS011;9621;48.690;9.466;2023-04-09T01:47:38;16.58;;;10.93;;
18973;SDS011;9621;48.690;9.466;2023-04-09T01:50:06;15.93;;;11.70;;
18973;SDS011;9621;48.690;9.466;2023-04-09T01:52:33;17.15;;;10.82;;
18973;SDS011;9621;48.690;9.466;2023-04-09T01:55:00;14.20;;;10.82;;
18973;SDS011;9621;48.690;9.466;2023-04-09T01:57:28;14.55;;;10.57;;
18973;SDS011;9621;48.690;9.466;2023-04-09T01:59:56;15.82;;;11.27;;
18973;SDS011;9621;48.690;9.466;2023-04-09T02:02:24;16.40;;;11.32;;
18973;SDS011;9621;48.690;9.466;2023-04-09T02:04:57;14.07;;;9.90;;
18973;SDS011;9621;48.690;9.466;2023-04-09T02:07:29;16.20;;;11.10;;
18973;SDS011;9621;48.690;9.466;2023-04-09T02:10:03;14.85;;;11.13;;
18973;SDS011;9621;48.690;9.466;2023-04-09T02:12:32;16.80;;;10.43;;
18973;SDS011;9621;48.690;9.466;2023-04-09T02:15:02;16.55;;;11.32;;
18973;SDS011;9621;48.690;9.466;2023-04-09T02:17:31;19.30;;;11.88;;
18973;SDS011;9621;48.690;9.466;2023-04-09T02:19:59;19.38;;;11.82;;
18973;SDS011;9621;48.690;9.466;2023-04-09T02:22:26;16.20;;;11.80;;
18973;SDS011;9621;48.690;9.466;2023-04-09T02:24:54;16.80;;;11.68;;
18973;SDS011;9621;48.690;9.466;2023-04-09T02:27:20;24.35;;;13.95;;
18973;SDS011;9621;48.690;9.466;2023-04-09T02:29:47;18.25;;;13.38;;
18973;SDS011;9621;48.690;9.466;2023-04-09T02:32:14;25.95;;;13.88;;
18973;SDS011;9621;48.690;9.466;2023-04-09T02:34:41;20.65;;;13.30;;
18973;SDS011;9621;48.690;9.466;2023-04-09T02:37:09;16.23;;;11.30;;
18973;SDS011;9621;48.690;9.466;2023-04-09T02:39:36;18.77;;;12.35;;
18973;SDS011;9621;48.690;9.466;2023-04-09T02:42:03;22.52;;;13.60;;
18973;SDS011;9621;48.690;9.466;2023-04-09T02:44:32;19.85;;;12.75;;
18973;SDS011;9621;48.690;9.466;2023-04-09T02:46:59;19.98;;;13.85;;
18973;SDS011;9621;48.690;9.466;2023-04-09T02:49:25;21.52;;;12.30;;
18973;SDS011;9621;48.690;9.466;2023-04-09T02:51:52;24.88;;;14.18;;
18973;SDS011;9621;48.690;9.466;2023-04-09T02:54:21;20.25;;;12.52;;
18973;SDS011;9621;48.690;9.466;2023-04-09T02:56:48;20.20;;;12.77;;
18973;SDS011;9621;48.690;9.466;2023-04-09T02:59:14;15.00;;;10.65;;
18973;SDS011;9621;48.690;9.466;2023-04-09T03:01:41;16.42;;;11.30;;
18973;SDS011;9621;48.690;9.466;2023-04-09T03:04:08;17.27;;;10.87;;
18973;SDS011;9621;48.690;9.466;2023-04-09T03:06:35;19.63;;;11.77;;
18973;SDS011;9621;48.690;9.466;2023-04-09T03:09:02;15.95;;;11.85;;
18973;SDS011;9621;48.690;9.466;2023-04-09T03:11:30;15.85;;;11.68;;
18973;SDS011;9621;48.690;9.466;2023-04-09T03:13:57;18.35;;;12.07;;
18973;SDS011;9621;48.690;9.466;2023-04-09T03:16:24;17.70;;;11.88;;
18973;SDS011;9621;48.690;9.466;2023-04-09T03:18:51;16.67;;;12.77;;
18973;SDS011;9621;48.690;9.466;2023-04-09T03:21:18;17.55;;;12.15;;
18973;SDS011;9621;48.690;9.466;2023-04-09T03:23:45;15.85;;;11.73;;
18973;SDS011;9621;48.690;9.466;2023-04-09T03:26:11;17.90;;;12.00;;
18973;SDS011;9621;48.690;9.466;2023-04-09T03:28:40;16.42;;;11.82;;
18973;SDS011;9621;48.690;9.466;2023-04-09T03:31:06;18.85;;;12.70;;
18973;SDS011;9621;48.690;9.466;2023-04-09T03:33:33;18.60;;;13.30;;
18973;SDS011;9621;48.690;9.466;2023-04-09T03:36:00;15.70;;;11.70;;
18973;SDS011;9621;48.690;9.466;2023-04-09T03:38:27;17.77;;;12.95;;
18973;SDS011;9621;48.690;9.466;2023-04-09T03:40:54;15.77;;;12.17;;
18973;SDS011;9621;48.690;9.466;2023-04-09T03:43:22;16.35;;;11.25;;
18973;SDS011;9621;48.690;9.466;2023-04-09T03:45:50;13.65;;;10.38;;
18973;SDS011;9621;48.690;9.466;2023-04-09T03:48:17;14.68;;;10.10;;
18973;SDS011;9621;48.690;9.466;2023-04-09T03:50:44;15.27;;;10.07;;
18973;SDS011;9621;48.690;9.466;2023-04-09T03:53:11;15.13;;;11.60;;
18973;SDS011;9621;48.690;9.466;2023-04-09T03:55:38;17.63;;;10.90;;
18973;SDS011;9621;48.690;9.466;2023-04-09T03:58:05;16.40;;;11.35;;
18973;SDS011;9621;48.690;9.466;2023-04-09T04:00:31;14.85;;;10.82;;
18973;SDS011;9621;48.690;9.466;2023-04-09T04:03:00;15.13;;;10.85;;
18973;SDS011;9621;48.690;9.466;2023-04-09T04:05:27;16.13;;;11.40;;
18973;SDS011;9621;48.690;9.466;2023-04-09T04:07:53;18.88;;;12.60;;
18973;SDS011;9621;48.690;9.466;2023-04-09T04:10:20;16.52;;;12.25;;
18973;SDS011;9621;48.690;9.466;2023-04-09T04:12:47;15.85;;;11.38;;
18973;SDS011;9621;48.690;9.466;2023-04-09T04:15:14;15.85;;;11.57;;
18973;SDS011;9621;48.690;9.466;2023-04-09T04:17:41;16.10;;;11.93;;
18973;SDS011;9621;48.690;9.466;2023-04-09T04:20:10;17.10;;;12.48;;
18973;SDS011;9621;48.690;9.466;2023-04-09T04:22:37;15.73;;;11.02;;
18973;SDS011;9621;48.690;9.466;2023-04-09T04:25:04;16.73;;;11.43;;
18973;SDS011;9621;48.690;9.466;2023-04-09T04:27:31;17.80;;;11.57;;
18973;SDS011;9621;48.690;9.466;2023-04-09T04:29:58;17.50;;;13.23;;
18973;SDS011;9621;48.690;9.466;2023-04-09T04:32:26;16.33;;;11.57;;
18973;SDS011;9621;48.690;9.466;2023-04-09T04:34:53;17.47;;;13.43;;
18973;SDS011;9621;48.690;9.466;2023-04-09T04:37:21;18.20;;;13.00;;
18973;SDS011;9621;48.690;9.466;2023-04-09T04:39:48;18.40;;;12.27;;
18973;SDS011;9621;48.690;9.466;2023-04-09T04:42:15;16.67;;;12.33;;
18973;SDS011;9621;48.690;9.466;2023-04-09T04:44:42;18.13;;;12.68;;
18973;SDS011;9621;48.690;9.466;2023-04-09T04:47:10;17.90;;;12.40;;
18973;SDS011;9621;48.690;9.466;2023-04-09T04:49:37;16.98;;;12.15;;
18973;SDS011;9621;48.690;9.466;2023-04-09T04:52:04;19.60;;;11.60;;
18973;SDS011;9621;48.690;9.466;2023-04-09T04:54:33;15.45;;;11.23;;
18973;SDS011;9621;48.690;9.466;2023-04-09T04:57:00;14.80;;;11.97;;
18973;SDS011;9621;48.690;9.466;2023-04-09T04:59:27;18.27;;;12.10;;
18973;SDS011;9621;48.690;9.466;2023-04-09T05:01:54;16.10;;;11.87;;
18973;SDS011;9621;48.690;9.466;2023-04-09T05:04:21;15.90;;;11.60;;
18973;SDS011;9621;48.690;9.466;2023-04-09T05:06:48;17.75;;;12.15;;
18973;SDS011;9621;48.690;9.466;2023-04-09T05:09:15;19.25;;;12.00;;
18973;SDS011;9621;48.690;9.466;2023-04-09T05:11:43;15.80;;;10.90;;
18973;SDS011;9621;48.690;9.466;2023-04-09T05:14:10;17.55;;;10.35;;
18973;SDS011;9621;48.690;9.466;2023-04-09T05:16:37;15.88;;;11.10;;
18973;SDS011;9621;48.690;9.466;2023-04-09T05:19:04;16.73;;;11.18;;
18973;SDS011;9621;48.690;9.466;2023-04-09T05:21:31;14.07;;;10.88;;
18973;SDS011;9621;48.690;9.466;2023-04-09T05:23:58;13.40;;;10.50;;
18973;SDS011;9621;48.690;9.466;2023-04-09T05:26:25;13.57;;;9.40;;
18973;SDS011;9621;48.690;9.466;2023-04-09T05:28:54;15.95;;;10.52;;
18973;SDS011;9621;48.690;9.466;2023-04-09T05:31:21;13.02;;;9.70;;
18973;SDS011;9621;48.690;9.466;2023-04-09T05:33:48;12.55;;;9.57;;
18973;SDS011;9621;48.690;9.466;2023-04-09T05:36:15;13.13;;;8.85;;
18973;SDS011;9621;48.690;9.466;2023-04-09T05:38:42;12.90;;;9.90;;
18973;SDS011;9621;48.690;9.466;2023-04-09T05:41:09;13.23;;;9.90;;
18973;SDS011;9621;48.690;9.466;2023-04-09T05:43:36;11.80;;;8.75;;
18973;SDS011;9621;48.690;9.466;2023-04-09T05:46:05;11.93;;;8.93;;
18973;SDS011;9621;48.690;9.466;2023-04-09T05:48:33;11.60;;;9.15;;
18973;SDS011;9621;48.690;9.466;2023-04-09T05:51:00;12.40;;;9.13;;
18973;SDS011;9621;48.690;9.466;2023-04-09T05:53:28;12.57;;;9.60;;
18973;SDS011;9621;48.690;9.466;2023-04-09T05:55:56;12.30;;;9.07;;
18973;SDS011;9621;48.690;9.466;2023-04-09T05:58:23;11.23;;;9.02;;
18973;SDS011;9621;48.690;9.466;2023-04-09T06:00:51;13.48;;;10.18;;
18973;SDS011;9621;48.690;9.466;2023-04-09T06:03:19;13.07;;;9.48;;
18973;SDS011;9621;48.690;9.466;2023-04-09T06:05:46;14.00;;;10.05;;
18973;SDS011;9621;48.690;9.466;2023-04-09T06:08:13;12.98;;;9.95;;
18973;SDS011;9621;48.690;9.466;2023-04-09T06:10:40;12.93;;;9.45;;
18973;SDS011;9621;48.690;9.466;2023-04-09T06:13:08;11.90;;;8.95;;
18973;SDS011;9621;48.690;9.466;2023-04-09T06:15:37;13.95;;;9.60;;
18973;SDS011;9621;48.690;9.466;2023-04-09T06:18:04;12.68;;;10.23;;
18973;SDS011;9621;48.690;9.466;2023-04-09T06:20:33;15.57;;;13.95;;
18973;SDS011;9621;48.690;9.466;2023-04-09T06:22:59;16.35;;;14.05;;
18973;SDS011;9621;48.690;9.466;2023-04-09T06:25:26;16.20;;;14.05;;
18973;SDS011;9621;48.690;9.466;2023-04-09T06:27:53;16.13;;;14.48;;
18973;SDS011;9621;48.690;9.466;2023-04-09T06:30:20;24.05;;;21.88;;
18973;SDS011;9621;48.690;9.466;2023-04-09T06:32:48;12.65;;;9.30;;
18973;SDS011;9621;48.690;9.466;2023-04-09T06:35:15;15.55;;;10.82;;
18973;SDS011;9621;48.690;9.466;2023-04-09T06:37:44;14.02;;;10.15;;
18973;SDS011;9621;48.690;9.466;2023-04-09T06:40:11;14.05;;;10.50;;
18973;SDS011;9621;48.690;9.466;2023-04-09T06:42:38;14.63;;;10.95;;
18973;SDS011;9621;48.690;9.466;2023-04-09T06:45:06;12.80;;;10.43;;
18973;SDS011;9621;48.690;9.466;2023-04-09T06:47:33;14.30;;;10.40;;
18973;SDS011;9621;48.690;9.466;2023-04-09T06:50:00;14.40;;;10.63;;
18973;SDS011;9621;48.690;9.466;2023-04-09T06:52:27;14.75;;;10.68;;
18973;SDS011;9621;48.690;9.466;2023-04-09T06:54:55;13.88;;;10.88;;
18973;SDS011;9621;48.690;9.466;2023-04-09T06:57:22;13.23;;;10.77;;
18973;SDS011;9621;48.690;9.466;2023-04-09T06:59:49;15.45;;;10.65;;
18973;SDS011;9621;48.690;9.466;2023-04-09T07:02:16;11.07;;;9.15;;
18973;SDS011;9621;48.690;9.466;2023-04-09T07:04:43;12.93;;;10.45;;
18973;SDS011;9621;48.690;9.466;2023-04-09T07:07:10;13.85;;;10.60;;
18973;SDS011;9621;48.690;9.466;2023-04-09T07:09:37;12.77;;;10.05;;
18973;SDS011;9621;48.690;9.466;2023-04-09T07:12:05;13.48;;;10.70;;
18973;SDS011;9621;48.690;9.466;2023-04-09T07:14:32;14.32;;;10.45;;
18973;SDS011;9621;48.690;9.466;2023-04-09T07:16:59;13.02;;;10.43;;
18973;SDS011;9621;48.690;9.466;2023-04-09T07:19:25;12.43;;;10.63;;
18973;SDS011;9621;48.690;9.466;2023-04-09T07:21:52;13.85;;;10.63;;
18973;SDS011;9621;48.690;9.466;2023-04-09T07:24:19;12.90;;;10.45;;
18973;SDS011;9621;48.690;9.466;2023-04-09T07:26:46;14.02;;;11.77;;
18973;SDS011;9621;48.690;9.466;2023-04-09T07:29:15;14.77;;;11.32;;
18973;SDS011;9621;48.690;9.466;2023-04-09T07:31:44;16.33;;;12.07;;
18973;SDS011;9621;48.690;9.466;2023-04-09T07:34:12;14.30;;;11.93;;
18973;SDS011;9621;48.690;9.466;2023-04-09T07:36:38;15.35;;;11.95;;
18973;SDS011;9621;48.690;9.466;2023-04-09T07:39:06;16.55;;;11.27;;
18973;SDS011;9621;48.690;9.466;2023-04-09T07:41:33;14.52;;;11.88;;
18973;SDS011;9621;48.690;9.466;2023-04-09T07:44:00;15.30;;;12.35;;
18973;SDS011;9621;48.690;9.466;2023-04-09T07:46:29;15.52;;;12.43;;
18973;SDS011;9621;48.690;9.466;2023-04-09T07:48:56;14.80;;;12.32;;
18973;SDS011;9621;48.690;9.466;2023-04-09T07:51:23;15.85;;;11.93;;
18973;SDS011;9621;48.690;9.466;2023-04-09T07:53:50;16.08;;;11.88;;
18973;SDS011;9621;48.690;9.466;2023-04-09T07:56:16;15.10;;;12.15;;
18973;SDS011;9621;48.690;9.466;2023-04-09T07:58:43;14.13;;;11.75;;
18973;SDS011;9621;48.690;9.466;2023-04-09T08:01:10;15.20;;;11.73;;
18973;SDS011;9621;48.690;9.466;2023-04-09T08:03:38;14.75;;;12.15;;
18973;SDS011;9621;48.690;9.466;2023-04-09T08:06:05;14.25;;;11.70;;
18973;SDS011;9621;48.690;9.466;2023-04-09T08:08:32;14.65;;;11.40;;
18973;SDS011;9621;48.690;9.466;2023-04-09T08:10:59;15.93;;;12.25;;
18973;SDS011;9621;48.690;9.466;2023-04-09T08:13:26;13.55;;;10.98;;
18973;SDS011;9621;48.690;9.466;2023-04-09T08:15:53;16.15;;;12.07;;
18973;SDS011;9621;48.690;9.466;2023-04-09T08:18:20;14.38;;;11.75;;
18973;SDS011;9621;48.690;9.466;2023-04-09T08:20:48;13.50;;;11.30;;
18973;SDS011;9621;48.690;9.466;2023-04-09T08:23:15;13.85;;;11.40;;
18973;SDS011;9621;48.690;9.466;2023-04-09T08:25:42;12.98;;;10.65;;
18973;SDS011;9621;48.690;9.466;2023-04-09T08:28:08;12.63;;;10.20;;
18973;SDS011;9621;48.690;9.466;2023-04-09T08:30:35;14.50;;;10.00;;
18973;SDS011;9621;48.690;9.466;2023-04-09T08:33:02;12.20;;;9.75;;
18973;SDS011;9621;48.690;9.466;2023-04-09T08:35:30;12.52;;;10.15;;
18973;SDS011;9621;48.690;9.466;2023-04-09T08:37:58;13.30;;;9.45;;
18973;SDS011;9621;48.690;9.466;2023-04-09T08:40:25;11.50;;;9.45;;
18973;SDS011;9621;48.690;9.466;2023-04-09T08:42:53;10.63;;;9.32;;
18973;SDS011;9621;48.690;9.466;2023-04-09T08:45:22;11.73;;;9.20;;
18973;SDS011;9621;48.690;9.466;2023-04-09T08:47:49;12.35;;;10.18;;
18973;SDS011;9621;48.690;9.466;2023-04-09T08:50:16;12.13;;;9.77;;
18973;SDS011;9621;48.690;9.466;2023-04-09T08:52:45;12.68;;;10.30;;
18973;SDS011;9621;48.690;9.466;2023-04-09T08:55:15;15.07;;;10.13;;
18973;SDS011;9621;48.690;9.466;2023-04-09T08:57:42;13.80;;;10.52;;
18973;SDS011;9621;48.690;9.466;2023-04-09T09:00:09;12.27;;;10.15;;
18973;SDS011;9621;48.690;9.466;2023-04-09T09:02:37;11.68;;;9.95;;
18973;SDS011;9621;48.690;9.466;2023-04-09T09:05:04;10.85;;;9.40;;
18973;SDS011;9621;48.690;9.466;2023-04-09T09:07:31;11.95;;;9.73;;
18973;SDS011;9621;48.690;9.466;2023-04-09T09:09:59;11.02;;;9.35;;
18973;SDS011;9621;48.690;9.466;2023-04-09T09:12:33;10.60;;;9.45;;
18973;SDS011;9621;48.690;9.466;2023-04-09T09:15:02;11.02;;;8.85;;
18973;SDS011;9621;48.690;9.466;2023-04-09T09:17:30;10.90;;;9.07;;
18973;SDS011;9621;48.690;9.466;2023-04-09T09:19:57;10.98;;;8.98;;
18973;SDS011;9621;48.690;9.466;2023-04-09T09:22:24;11.40;;;9.18;;
18973;SDS011;9621;48.690;9.466;2023-04-09T09:24:51;10.82;;;7.25;;
18973;SDS011;9621;48.690;9.466;2023-04-09T09:27:32;10.32;;;9.02;;
18973;SDS011;9621;48.690;9.466;2023-04-09T09:30:03;12.10;;;8.75;;
18973;SDS011;9621;48.690;9.466;2023-04-09T09:32:32;11.65;;;8.32;;
18973;SDS011;9621;48.690;9.466;2023-04-09T09:35:00;10.10;;;9.00;;
18973;SDS011;9621;48.690;9.466;2023-04-09T09:37:28;11.48;;;8.75;;
18973;SDS011;9621;48.690;9.466;2023-04-09T09:39:56;10.05;;;8.25;;
18973;SDS011;9621;48.690;9.466;2023-04-09T09:42:23;9.15;;;7.68;;
18973;SDS011;9621;48.690;9.466;2023-04-09T09:44:51;9.63;;;8.20;;
18973;SDS011;9621;48.690;9.466;2023-04-09T09:47:19;10.75;;;8.77;;
18973;SDS011;9621;48.690;9.466;2023-04-09T09:49:47;8.65;;;7.28;;
18973;SDS011;9621;48.690;9.466;2023-04-09T09:52:14;9.60;;;7.25;;
18973;SDS011;9621;48.690;9.466;2023-04-09T09:54:46;8.73;;;7.25;;
18973;SDS011;9621;48.690;9.466;2023-04-09T09:57:18;8.43;;;7.30;;
18973;SDS011;9621;48.690;9.466;2023-04-09T09:59:50;8.60;;;6.90;;
18973;SDS011;9621;48.690;9.466;2023-04-09T10:02:22;10.00;;;7.05;;
18973;SDS011;9621;48.690;9.466;2023-04-09T10:04:50;8.18;;;7.25;;
18973;SDS011;9621;48.690;9.466;2023-04-09T10:07:18;7.93;;;7.13;;
18973;SDS011;9621;48.690;9.466;2023-04-09T10:09:47;9.98;;;7.45;;
18973;SDS011;9621;48.690;9.466;2023-04-09T10:12:16;9.35;;;7.10;;
18973;SDS011;9621;48.690;9.466;2023-04-09T10:14:46;9.32;;;7.70;;
18973;SDS011;9621;48.690;9.466;2023-04-09T10:17:15;8.68;;;7.35;;
18973;SDS011;9621;48.690;9.466;2023-04-09T10:19:43;8.52;;;7.18;;
18973;SDS011;9621;48.690;9.466;2023-04-09T10:22:15;7.60;;;6.32;;
18973;SDS011;9621;48.690;9.466;2023-04-09T10:24:44;7.75;;;6.63;;
18973;SDS011;9621;48.690;9.466;2023-04-09T10:27:12;7.28;;;6.00;;
18973;SDS011;9621;48.690;9.466;2023-04-09T10:29:43;6.65;;;5.97;;
18973;SDS011;9621;48.690;9.466;2023-04-09T10:32:12;7.70;;;6.90;;
18973;SDS011;9621;48.690;9.466;2023-04-09T10:34:47;8.18;;;6.43;;
18973;SDS011;9621;48.690;9.466;2023-04-09T10:37:19;8.10;;;6.63;;
18973;SDS011;9621;48.690;9.466;2023-04-09T10:39:47;6.10;;;5.50;;
18973;SDS011;9621;48.690;9.466;2023-04-09T10:42:17;8.68;;;5.70;;
18973;SDS011;9621;48.690;9.466;2023-04-09T10:44:46;6.13;;;5.50;;
18973;SDS011;9621;48.690;9.466;2023-04-09T10:47:30;6.28;;;5.03;;
18973;SDS011;9621;48.690;9.466;2023-04-09T10:49:59;7.47;;;5.53;;
18973;SDS011;9621;48.690;9.466;2023-04-09T10:52:40;5.70;;;4.72;;
18973;SDS011;9621;48.690;9.466;2023-04-09T10:55:08;5.95;;;5.35;;
18973;SDS011;9621;48.690;9.466;2023-04-09T10:57:35;5.68;;;5.05;;
18973;SDS011;9621;48.690;9.466;2023-04-09T11:00:02;5.88;;;5.15;;
18973;SDS011;9621;48.690;9.466;2023-04-09T11:05:32;6.60;;;5.30;;
18973;SDS011;9621;48.690;9.466;2023-04-09T11:08:03;6.45;;;5.35;;
18973;SDS011;9621;48.690;9.466;2023-04-09T11:10:31;7.30;;;5.47;;
18973;SDS011;9621;48.690;9.466;2023-04-09T11:12:58;10.80;;;6.15;;
18973;SDS011;9621;48.690;9.466;2023-04-09T11:15:25;7.28;;;5.57;;
18973;SDS011;9621;48.690;9.466;2023-04-09T11:17:52;6.03;;;5.20;;
18973;SDS011;9621;48.690;9.466;2023-04-09T11:20:21;7.10;;;5.80;;
18973;SDS011;9621;48.690;9.466;2023-04-09T11:22:51;6.65;;;5.10;;
18973;SDS011;9621;48.690;9.466;2023-04-09T11:25:19;6.65;;;5.70;;
18973;SDS011;9621;48.690;9.466;2023-04-09T11:27:47;6.65;;;5.32;;
18973;SDS011;9621;48.690;9.466;2023-04-09T11:30:14;5.95;;;5.35;;
18973;SDS011;9621;48.690;9.466;2023-04-09T11:32:41;6.10;;;5.05;;
18973;SDS011;9621;48.690;9.466;2023-04-09T11:35:12;5.47;;;4.25;;
18973;SDS011;9621;48.690;9.466;2023-04-09T11:37:39;6.05;;;4.85;;
18973;SDS011;9621;48.690;9.466;2023-04-09T11:40:12;5.70;;;5.10;;
18973;SDS011;9621;48.690;9.466;2023-04-09T11:42:41;6.03;;;4.78;;
18973;SDS011;9621;48.690;9.466;2023-04-09T11:45:09;5.78;;;4.70;;
18973;SDS011;9621;48.690;9.466;2023-04-09T11:47:38;5.32;;;4.47;;
18973;SDS011;9621;48.690;9.466;2023-04-09T11:50:06;5.45;;;4.82;;
18973;SDS011;9621;48.690;9.466;2023-04-09T11:52:34;5.82;;;4.85;;
18973;SDS011;9621;48.690;9.466;2023-04-09T11:55:02;5.88;;;4.82;;
18973;SDS011;9621;48.690;9.466;2023-04-09T11:57:37;6.00;;;4.55;;
18973;SDS011;9621;48.690;9.466;2023-04-09T12:00:07;6.22;;;4.65;;
18973;SDS011;9621;48.690;9.466;2023-04-09T12:02:36;5.93;;;4.93;;
18973;SDS011;9621;48.690;9.466;2023-04-09T12:05:05;6.68;;;4.82;;
18973;SDS011;9621;48.690;9.466;2023-04-09T12:07:36;5.70;;;4.80;;
18973;SDS011;9621;48.690;9.466;2023-04-09T12:10:04;6.13;;;5.53;;
18973;SDS011;9621;48.690;9.466;2023-04-09T12:12:39;5.93;;;4.47;;
18973;SDS011;9621;48.690;9.466;2023-04-09T12:15:11;4.88;;;4.20;;
18973;SDS011;9621;48.690;9.466;2023-04-09T12:17:45;6.18;;;5.05;;
18973;SDS011;9621;48.690;9.466;2023-04-09T12:20:13;5.25;;;4.43;;
18973;SDS011;9621;48.690;9.466;2023-04-09T12:22:50;5.40;;;4.32;;
18973;SDS011;9621;48.690;9.466;2023-04-09T12:25:17;5.80;;;4.50;;
18973;SDS011;9621;48.690;9.466;2023-04-09T12:27:45;6.28;;;4.43;;
18973;SDS011;9621;48.690;9.466;2023-04-09T12:30:12;5.78;;;4.40;;
18973;SDS011;9621;48.690;9.466;2023-04-09T12:32:39;5.90;;;4.63;;
18973;SDS011;9621;48.690;9.466;2023-04-09T12:35:07;6.97;;;4.18;;
18973;SDS011;9621;48.690;9.466;2023-04-09T12:37:34;6.43;;;4.68;;
18973;SDS011;9621;48.690;9.466;2023-04-09T12:40:01;5.63;;;4.30;;
18973;SDS011;9621;48.690;9.466;2023-04-09T12:42:28;4.90;;;4.15;;
18973;SDS011;9621;48.690;9.466;2023-04-09T12:44:56;5.97;;;4.80;;
18973;SDS011;9621;48.690;9.466;2023-04-09T12:47:23;6.18;;;4.90;;
18973;SDS011;9621;48.690;9.466;2023-04-09T12:49:51;7.35;;;5.28;;
18973;SDS011;9621;48.690;9.466;2023-04-09T12:52:17;5.78;;;4.65;;
18973;SDS011;9621;48.690;9.466;2023-04-09T12:54:46;5.55;;;4.65;;
18973;SDS011;9621;48.690;9.466;2023-04-09T12:57:13;6.07;;;4.60;;
18973;SDS011;9621;48.690;9.466;2023-04-09T12:59:40;5.07;;;4.43;;
18973;SDS011;9621;48.690;9.466;2023-04-09T13:02:09;5.82;;;5.13;;
18973;SDS011;9621;48.690;9.466;2023-04-09T13:04:35;6.00;;;4.55;;
18973;SDS011;9621;48.690;9.466;2023-04-09T13:07:02;5.57;;;4.40;;
18973;SDS011;9621;48.690;9.466;2023-04-09T13:09:29;5.75;;;4.72;;
18973;SDS011;9621;48.690;9.466;2023-04-09T13:11:56;5.82;;;4.63;;
18973;SDS011;9621;48.690;9.466;2023-04-09T13:14:23;5.18;;;4.25;;
18973;SDS011;9621;48.690;9.466;2023-04-09T13:16:50;5.55;;;4.35;;
18973;SDS011;9621;48.690;9.466;2023-04-09T13:19:19;6.53;;;4.28;;
18973;SDS011;9621;48.690;9.466;2023-04-09T13:21:46;4.85;;;4.20;;
18973;SDS011;9621;48.690;9.466;2023-04-09T13:24:13;5.97;;;4.88;;
18973;SDS011;9621;48.690;9.466;2023-04-09T13:26:40;5.38;;;4.85;;
18973;SDS011;9621;48.690;9.466;2023-04-09T13:29:07;5.45;;;4.35;;
18973;SDS011;9621;48.690;9.466;2023-04-09T13:31:34;5.22;;;4.30;;
18973;SDS011;9621;48.690;9.466;2023-04-09T13:34:01;6.60;;;5.00;;
18973;SDS011;9621;48.690;9.466;2023-04-09T13:36:29;7.78;;;5.22;;
18973;SDS011;9621;48.690;9.466;2023-04-09T13:38:56;4.93;;;4.38;;
18973;SDS011;9621;48.690;9.466;2023-04-09T13:41:28;5.45;;;4.63;;
18973;SDS011;9621;48.690;9.466;2023-04-09T13:43:56;19.52;;;18.27;;
18973;SDS011;9621;48.690;9.466;2023-04-09T13:46:23;17.63;;;16.42;;
18973;SDS011;9621;48.690;9.466;2023-04-09T13:48:50;17.85;;;16.65;;
18973;SDS011;9621;48.690;9.466;2023-04-09T13:51:18;19.25;;;17.95;;
18973;SDS011;9621;48.690;9.466;2023-04-09T13:53:46;20.52;;;19.08;;
18973;SDS011;9621;48.690;9.466;2023-04-09T13:56:13;20.40;;;18.75;;
18973;SDS011;9621;48.690;9.466;2023-04-09T13:58:40;20.90;;;19.40;;
18973;SDS011;9621;48.690;9.466;2023-04-09T14:01:08;21.45;;;19.95;;
18973;SDS011;9621;48.690;9.466;2023-04-09T14:03:35;20.25;;;18.85;;
18973;SDS011;9621;48.690;9.466;2023-04-09T14:06:04;20.60;;;19.20;;
18973;SDS011;9621;48.690;9.466;2023-04-09T14:08:32;20.73;;;19.13;;
18973;SDS011;9621;48.690;9.466;2023-04-09T14:11:01;20.90;;;19.25;;
18973;SDS011;9621;48.690;9.466;2023-04-09T14:13:28;19.02;;;17.73;;
18973;SDS011;9621;48.690;9.466;2023-04-09T14:15:55;21.20;;;19.60;;
18973;SDS011;9621;48.690;9.466;2023-04-09T14:18:22;19.70;;;18.33;;
18973;SDS011;9621;48.690;9.466;2023-04-09T14:20:49;21.48;;;19.95;;
18973;SDS011;9621;48.690;9.466;2023-04-09T14:23:16;20.17;;;18.83;;
18973;SDS011;9621;48.690;9.466;2023-04-09T14:25:43;21.25;;;19.48;;
18973;SDS011;9621;48.690;9.466;2023-04-09T14:28:11;18.98;;;17.75;;
18973;SDS011;9621;48.690;9.466;2023-04-09T14:30:38;19.75;;;18.40;;
18973;SDS011;9621;48.690;9.466;2023-04-09T14:33:05;19.13;;;17.83;;
18973;SDS011;9621;48.690;9.466;2023-04-09T14:35:32;18.60;;;17.38;;
18973;SDS011;9621;48.690;9.466;2023-04-09T14:37:59;19.88;;;18.63;;
18973;SDS011;9621;48.690;9.466;2023-04-09T14:40:28;20.73;;;19.30;;
18973;SDS011;9621;48.690;9.466;2023-04-09T14:42:55;21.52;;;20.13;;
18973;SDS011;9621;48.690;9.466;2023-04-09T14:45:23;20.77;;;19.38;;
18973;SDS011;9621;48.690;9.466;2023-04-09T14:47:50;20.73;;;19.42;;
18973;SDS011;9621;48.690;9.466;2023-04-09T14:50:18;21.15;;;19.63;;